Weather at London City Airport

Public forecast

Using degrees Celsius for public forecast. Weather courtesy of forecast.io.

Current aviation weather report (METAR) for London City Airport

Report is more than 6 hours old.

2022/11/14 15:20 (retrieved 2 years ago)

EGLC 141520Z AUTO 07005KT 7000 BKN027 12/11 Q1006

Closest aviation forecast (TAF) to London City Airport

Forecast is more than 12 hours old.

Closest forecast is RAF Northolt, 17.9 nm (33.2 km) W.

2023/02/22 21:36 (retrieved 1 year ago)

TAF EGWU 221929Z 2221/2315 32005KT 9999 FEW030 BECMG 2223/2302 BKN007 TEMPO 2223/2312 6000 RADZ PROB30 TEMPO 2301/2305 4000 BKN005 BECMG 2310/2313 BKN025